Terminal Aerodrome Forecast
Issued by NWS Wichita, KS

Home | Current Version | Previous Version | Graphics & Text | Print | Product List | Glossary On
Versions: 1 2 3 4 5 6 7 8 9 10 11 12 13 14 15
000
FTUS43 KICT 011134
TAFICT
TAF
KICT 011134Z 0112/0212 22011KT P6SM SCT100 BKN200
     FM011500 22017G24KT P6SM SCT100 BKN200
     FM020000 25011KT P6SM SCT100
     FM020300 36011KT P6SM SCT100=

USA.gov is the U.S. government's official web portal to all federal, state and local government web resources and services.